Sponsor www.jackysshop.nl
Extreme hitte van: 26-06-2019 01:00 tot: 23:00 waarschuwing voor: Extreme hitte niveau: Geel info button
Het Nationaal Hitteplan van het RIVM is geactiveerd voor het midden, zuiden en oosten van het land, daarom is daar nu een code geel voor aanhoudende hitte van kracht.Er is sprake van aanhoudende hitte.Besteed extra zorg en aandacht aan kwetsbare mensen in uw omgeving.Met name ouderen en mensen met een chronische aandoening wordt geadviseerd maatregelen te nemen: drink voldoende, houd uzelf en uw woning koel.



METAR rapporten vliegvelden

   
EBAW - Antwerp
Gewijzigd: 26-06-2019 03:50
Nevel, Bewolking  
Nevel, Bewolking  
   Wind: WNW 13 km/h
Wind: WNW 13 km/h
Temperatuur: 18°C
Dauwpunt: 16°C
Vochtigheid: 88%
Barometer: 1022 hPa
Bewolking: Bewolking
Zicht: 2.9 km
Bewolking: Bewolking 600 ft
EBAW 260150Z AUTO 29007KT 2900 BR OVC006/// 18/16 Q1022
EBLG - Li├Ęge
Gewijzigd: 26-06-2019 03:50
Gedeeltelijk bewolkt  
Gedeeltelijk bewolkt  
   Wind: varieert 1.9 km/h
Wind: varieert 1.9 km/h
Temperatuur: 21°C
Dauwpunt: 19°C
Vochtigheid: 88%
Barometer: 1022 hPa
Bewolking: Gedeeltelijk bewolkt
Zicht: 6 km
Bewolking: Gedeeltelijk bewolkt
EBLG 260150Z VRB01KT 6000 NSC 21/19 Q1022
EBCV - Mons/Bergen
Gewijzigd: 26-06-2019 03:55
Nevel, Helder  
Nevel, Helder  
   Wind: WNW 5.6 km/h
Wind: WNW 5.6 km/h
Temperatuur: 16°C
Dauwpunt: 16°C
Vochtigheid: 100%
Barometer: 1023 hPa
Bewolking: Helder
Zicht: 1.7 km
Bewolking: Helder
EBCV 260155Z AUTO 30003KT 1700 BR NCD 16/16 Q1023 YLO
EHBK - Maastricht
Gewijzigd: 26-06-2019 03:55
Helder  
Helder  
   Wind: WNW 5.6 km/h
Wind: WNW 5.6 km/h
Temperatuur: 21°C
Dauwpunt: 19°C
Vochtigheid: 88%
Barometer: 1021 hPa
Bewolking: Helder
Zicht: meer dan 10 km
Bewolking: Helder
EHBK 260155Z AUTO 30003KT 260V350 9999 NCD 21/19 Q1021
ELLX - Luxemburg
Gewijzigd: 26-06-2019 03:50
Helder  
Helder  
   Wind: Noorden 5.6 km/h
Wind: Noorden 5.6 km/h
Temperatuur: 22°C
Dauwpunt: 16°C
Vochtigheid: 69%
Barometer: 1022 hPa
Bewolking: Helder
Zicht: meer dan 10 km
Bewolking: Helder
ELLX 260150Z AUTO 01003KT 9999 NCD 22/16 Q1022 NOSIG
EBOS - Oostende
Gewijzigd: 26-06-2019 03:50
Nevel, Grotendeels bewolkt  
Nevel, Grotendeels bewolkt  
   Wind: NNW 18.5 km/h
Wind: NNW 18.5 km/h
Temperatuur: 15°C
Dauwpunt: 14°C
Vochtigheid: 94%
Barometer: 1023 hPa
Bewolking: Grotendeels bewolkt
Zicht: 2.5 km
Bewolking: Grotendeels bewolkt 200 ft
EBOS 260150Z 34010KT 2500 BR BKN002 15/14 Q1023 NOSIG

Script ontwikkeld door  Saratoga-weather.org Aangepast voor de template door  Weerstation Leuven